sensor_id;sensor_type;location;lat;lon;timestamp;pressure;altitude;pressure_sealevel;temperature;humidity
13612;BME280;6877;51.436;6.774;2024-02-14T00:00:26;101026.81;;;7.32;100.00
13612;BME280;6877;51.436;6.774;2024-02-14T00:02:53;101038.09;;;7.18;100.00
13612;BME280;6877;51.436;6.774;2024-02-14T00:05:19;101035.50;;;7.02;100.00
13612;BME280;6877;51.436;6.774;2024-02-14T00:07:45;101033.72;;;6.81;100.00
13612;BME280;6877;51.436;6.774;2024-02-14T00:10:12;101033.72;;;6.62;100.00
13612;BME280;6877;51.436;6.774;2024-02-14T00:12:39;101036.28;;;6.53;100.00
13612;BME280;6877;51.436;6.774;2024-02-14T00:15:06;101029.31;;;6.46;100.00
13612;BME280;6877;51.436;6.774;2024-02-14T00:17:38;101031.94;;;6.44;100.00
13612;BME280;6877;51.436;6.774;2024-02-14T00:20:05;101024.09;;;6.40;100.00
13612;BME280;6877;51.436;6.774;2024-02-14T00:22:32;101030.19;;;6.43;100.00
13612;BME280;6877;51.436;6.774;2024-02-14T00:24:59;101028.44;;;6.42;100.00
13612;BME280;6877;51.436;6.774;2024-02-14T00:27:25;101025.84;;;6.38;100.00
13612;BME280;6877;51.436;6.774;2024-02-14T00:29:52;101033.66;;;6.38;100.00
13612;BME280;6877;51.436;6.774;2024-02-14T00:32:20;101035.38;;;6.37;100.00
13612;BME280;6877;51.436;6.774;2024-02-14T00:34:51;101037.97;;;6.39;100.00
13612;BME280;6877;51.436;6.774;2024-02-14T00:37:23;101037.09;;;6.38;100.00
13612;BME280;6877;51.436;6.774;2024-02-14T00:39:50;101031.03;;;6.38;100.00
13612;BME280;6877;51.436;6.774;2024-02-14T00:42:18;101034.50;;;6.40;100.00
13612;BME280;6877;51.436;6.774;2024-02-14T00:44:49;101025.88;;;6.44;100.00
13612;BME280;6877;51.436;6.774;2024-02-14T00:47:16;101031.06;;;6.44;100.00
13612;BME280;6877;51.436;6.774;2024-02-14T00:49:42;101024.97;;;6.42;100.00
13612;BME280;6877;51.436;6.774;2024-02-14T00:52:09;101029.28;;;6.40;100.00
13612;BME280;6877;51.436;6.774;2024-02-14T00:54:35;101027.56;;;6.39;100.00
13612;BME280;6877;51.436;6.774;2024-02-14T00:57:02;101023.25;;;6.38;100.00
13612;BME280;6877;51.436;6.774;2024-02-14T00:59:34;101028.44;;;6.38;100.00
13612;BME280;6877;51.436;6.774;2024-02-14T01:02:05;101016.31;;;6.38;100.00
13612;BME280;6877;51.436;6.774;2024-02-14T01:04:32;101017.16;;;6.39;100.00
13612;BME280;6877;51.436;6.774;2024-02-14T01:06:59;101016.28;;;6.37;100.00
13612;BME280;6877;51.436;6.774;2024-02-14T01:09:25;101011.09;;;6.35;100.00
13612;BME280;6877;51.436;6.774;2024-02-14T01:11:58;101003.28;;;6.37;100.00
13612;BME280;6877;51.436;6.774;2024-02-14T01:14:31;100998.09;;;6.37;100.00
13612;BME280;6877;51.436;6.774;2024-02-14T01:16:57;100994.63;;;6.36;100.00
13612;BME280;6877;51.436;6.774;2024-02-14T01:19:24;100991.16;;;6.36;100.00
13612;BME280;6877;51.436;6.774;2024-02-14T01:21:55;100995.50;;;6.38;100.00
13612;BME280;6877;51.436;6.774;2024-02-14T01:24:23;101001.59;;;6.42;100.00
13612;BME280;6877;51.436;6.774;2024-02-14T01:26:53;100999.00;;;6.43;100.00
13612;BME280;6877;51.436;6.774;2024-02-14T01:29:21;100993.81;;;6.43;100.00
13612;BME280;6877;51.436;6.774;2024-02-14T01:31:53;100986.88;;;6.47;100.00
13612;BME280;6877;51.436;6.774;2024-02-14T01:34:20;100988.59;;;6.48;100.00
13612;BME280;6877;51.436;6.774;2024-02-14T01:36:47;100990.31;;;6.49;100.00
13612;BME280;6877;51.436;6.774;2024-02-14T01:39:14;100988.63;;;6.49;100.00
13612;BME280;6877;51.436;6.774;2024-02-14T01:41:46;100996.44;;;6.53;100.00
13612;BME280;6877;51.436;6.774;2024-02-14T01:44:19;100995.53;;;6.52;100.00
13612;BME280;6877;51.436;6.774;2024-02-14T01:46:52;100989.47;;;6.55;100.00
13612;BME280;6877;51.436;6.774;2024-02-14T01:49:19;100980.81;;;6.59;100.00
13612;BME280;6877;51.436;6.774;2024-02-14T01:51:46;100989.50;;;6.59;100.00
13612;BME280;6877;51.436;6.774;2024-02-14T01:54:17;100979.09;;;6.62;100.00
13612;BME280;6877;51.436;6.774;2024-02-14T01:56:49;100972.16;;;6.66;100.00
13612;BME280;6877;51.436;6.774;2024-02-14T01:59:16;100987.75;;;6.70;100.00
13612;BME280;6877;51.436;6.774;2024-02-14T02:01:48;100991.25;;;6.72;100.00
13612;BME280;6877;51.436;6.774;2024-02-14T02:04:19;100988.66;;;6.76;100.00
13612;BME280;6877;51.436;6.774;2024-02-14T02:06:47;100981.72;;;6.76;100.00
13612;BME280;6877;51.436;6.774;2024-02-14T02:09:18;100992.13;;;6.79;100.00
13612;BME280;6877;51.436;6.774;2024-02-14T02:11:51;100985.19;;;6.81;100.00
13612;BME280;6877;51.436;6.774;2024-02-14T02:14:19;100983.47;;;6.85;100.00
13612;BME280;6877;51.436;6.774;2024-02-14T02:16:48;100989.50;;;6.90;100.00
13612;BME280;6877;51.436;6.774;2024-02-14T02:19:20;100988.66;;;6.92;100.00
13612;BME280;6877;51.436;6.774;2024-02-14T02:21:46;100983.44;;;6.95;100.00
13612;BME280;6877;51.436;6.774;2024-02-14T02:24:13;100993.88;;;7.00;100.00
13612;BME280;6877;51.436;6.774;2024-02-14T02:26:44;100994.72;;;7.05;100.00
13612;BME280;6877;51.436;6.774;2024-02-14T02:29:16;100995.56;;;7.12;100.00
13612;BME280;6877;51.436;6.774;2024-02-14T02:31:47;100983.44;;;7.15;100.00
13612;BME280;6877;51.436;6.774;2024-02-14T02:34:19;100982.56;;;7.26;100.00
13612;BME280;6877;51.436;6.774;2024-02-14T02:36:46;100982.56;;;7.35;100.00
13612;BME280;6877;51.436;6.774;2024-02-14T02:39:12;100976.47;;;7.37;100.00
13612;BME280;6877;51.436;6.774;2024-02-14T02:41:40;100978.19;;;7.43;100.00
13612;BME280;6877;51.436;6.774;2024-02-14T02:44:11;100985.16;;;7.47;100.00
13612;BME280;6877;51.436;6.774;2024-02-14T02:46:38;100989.47;;;7.54;100.00
13612;BME280;6877;51.436;6.774;2024-02-14T02:49:09;100981.63;;;7.59;100.00
13612;BME280;6877;51.436;6.774;2024-02-14T02:51:35;100975.56;;;7.63;100.00
13612;BME280;6877;51.436;6.774;2024-02-14T02:54:02;100986.84;;;7.66;100.00
13612;BME280;6877;51.436;6.774;2024-02-14T02:56:28;100980.75;;;7.68;100.00
13612;BME280;6877;51.436;6.774;2024-02-14T02:59:00;100973.78;;;7.76;100.00
13612;BME280;6877;51.436;6.774;2024-02-14T03:01:37;100981.56;;;7.83;100.00
13612;BME280;6877;51.436;6.774;2024-02-14T03:04:08;100976.34;;;7.85;100.00
13612;BME280;6877;51.436;6.774;2024-02-14T03:06:40;100977.19;;;7.90;100.00
13612;BME280;6877;51.436;6.774;2024-02-14T03:09:06;100978.03;;;7.90;100.00
13612;BME280;6877;51.436;6.774;2024-02-14T03:11:33;100974.56;;;7.95;100.00
13612;BME280;6877;51.436;6.774;2024-02-14T03:14:01;100968.44;;;8.03;100.00
13612;BME280;6877;51.436;6.774;2024-02-14T03:16:33;100967.56;;;8.06;100.00
13612;BME280;6877;51.436;6.774;2024-02-14T03:19:00;100959.75;;;8.10;100.00
13612;BME280;6877;51.436;6.774;2024-02-14T03:21:26;100975.34;;;8.17;100.00
13612;BME280;6877;51.436;6.774;2024-02-14T03:23:59;100971.84;;;8.16;100.00
13612;BME280;6877;51.436;6.774;2024-02-14T03:26:33;100972.72;;;8.15;100.00
13612;BME280;6877;51.436;6.774;2024-02-14T03:29:03;100974.44;;;8.16;100.00
13612;BME280;6877;51.436;6.774;2024-02-14T03:31:32;100964.91;;;8.15;100.00
13612;BME280;6877;51.436;6.774;2024-02-14T03:33:59;100962.31;;;8.12;100.00
13612;BME280;6877;51.436;6.774;2024-02-14T03:36:25;100964.94;;;8.13;100.00
13612;BME280;6877;51.436;6.774;2024-02-14T03:38:54;100962.31;;;8.12;100.00
13612;BME280;6877;51.436;6.774;2024-02-14T03:41:26;100977.09;;;8.15;100.00
13612;BME280;6877;51.436;6.774;2024-02-14T03:43:58;100961.44;;;8.15;100.00
13612;BME280;6877;51.436;6.774;2024-02-14T03:46:32;100964.91;;;8.17;100.00
13612;BME280;6877;51.436;6.774;2024-02-14T03:49:06;100961.44;;;8.15;100.00
13612;BME280;6877;51.436;6.774;2024-02-14T03:51:32;100965.78;;;8.14;100.00
13612;BME280;6877;51.436;6.774;2024-02-14T03:54:05;100965.78;;;8.14;100.00
13612;BME280;6877;51.436;6.774;2024-02-14T03:56:31;100961.44;;;8.15;100.00
13612;BME280;6877;51.436;6.774;2024-02-14T03:58:59;100959.72;;;8.17;100.00
13612;BME280;6877;51.436;6.774;2024-02-14T04:01:25;100960.53;;;8.19;100.00
13612;BME280;6877;51.436;6.774;2024-02-14T04:03:57;100978.78;;;8.22;100.00
13612;BME280;6877;51.436;6.774;2024-02-14T04:06:28;100978.78;;;8.23;100.00
13612;BME280;6877;51.436;6.774;2024-02-14T04:09:02;100973.53;;;8.28;100.00
13612;BME280;6877;51.436;6.774;2024-02-14T04:11:29;100970.94;;;8.28;100.00
13612;BME280;6877;51.436;6.774;2024-02-14T04:14:00;100964.81;;;8.29;100.00
13612;BME280;6877;51.436;6.774;2024-02-14T04:16:32;100971.78;;;8.30;100.00
13612;BME280;6877;51.436;6.774;2024-02-14T04:18:59;100970.91;;;8.31;100.00
13612;BME280;6877;51.436;6.774;2024-02-14T04:21:31;100977.84;;;8.32;100.00
13612;BME280;6877;51.436;6.774;2024-02-14T04:23:57;100975.25;;;8.32;100.00
13612;BME280;6877;51.436;6.774;2024-02-14T04:26:24;100970.91;;;8.32;100.00
13612;BME280;6877;51.436;6.774;2024-02-14T04:28:50;100980.44;;;8.35;100.00
13612;BME280;6877;51.436;6.774;2024-02-14T04:31:17;100982.22;;;8.39;100.00
13612;BME280;6877;51.436;6.774;2024-02-14T04:33:48;100997.84;;;8.39;100.00
13612;BME280;6877;51.436;6.774;2024-02-14T04:36:19;100993.47;;;8.36;100.00
13612;BME280;6877;51.436;6.774;2024-02-14T04:38:47;100982.22;;;8.39;100.00
13612;BME280;6877;51.436;6.774;2024-02-14T04:41:14;100983.94;;;8.40;100.00
13612;BME280;6877;51.436;6.774;2024-02-14T04:43:41;100997.84;;;8.42;100.00
13612;BME280;6877;51.436;6.774;2024-02-14T04:46:07;100991.75;;;8.43;100.00
13612;BME280;6877;51.436;6.774;2024-02-14T04:48:35;100996.94;;;8.45;100.00
13612;BME280;6877;51.436;6.774;2024-02-14T04:51:03;101003.91;;;8.46;100.00
13612;BME280;6877;51.436;6.774;2024-02-14T04:53:33;100990.00;;;8.45;100.00
13612;BME280;6877;51.436;6.774;2024-02-14T04:55:59;101006.47;;;8.47;100.00
13612;BME280;6877;51.436;6.774;2024-02-14T04:58:26;101007.34;;;8.48;100.00
13612;BME280;6877;51.436;6.774;2024-02-14T05:00:53;101003.03;;;8.48;100.00
13612;BME280;6877;51.436;6.774;2024-02-14T05:03:26;101003.84;;;8.50;100.00
13612;BME280;6877;51.436;6.774;2024-02-14T05:05:57;101013.44;;;8.51;100.00
13612;BME280;6877;51.436;6.774;2024-02-14T05:08:25;101015.16;;;8.52;100.00
13612;BME280;6877;51.436;6.774;2024-02-14T05:10:51;101021.25;;;8.51;100.00
13612;BME280;6877;51.436;6.774;2024-02-14T05:13:21;101015.16;;;8.51;100.00
13612;BME280;6877;51.436;6.774;2024-02-14T05:15:47;101026.47;;;8.51;100.00
13612;BME280;6877;51.436;6.774;2024-02-14T05:18:15;101022.09;;;8.56;100.00
13612;BME280;6877;51.436;6.774;2024-02-14T05:20:42;101024.72;;;8.55;100.00
13612;BME280;6877;51.436;6.774;2024-02-14T05:23:08;101031.66;;;8.53;100.00
13612;BME280;6877;51.436;6.774;2024-02-14T05:25:42;101029.09;;;8.51;100.00
13612;BME280;6877;51.436;6.774;2024-02-14T05:28:09;101037.78;;;8.49;100.00
13612;BME280;6877;51.436;6.774;2024-02-14T05:30:45;101037.78;;;8.47;100.00
13612;BME280;6877;51.436;6.774;2024-02-14T05:33:11;101041.25;;;8.48;100.00
13612;BME280;6877;51.436;6.774;2024-02-14T05:35:38;101041.25;;;8.49;100.00
13612;BME280;6877;51.436;6.774;2024-02-14T05:38:04;101036.94;;;8.48;100.00
13612;BME280;6877;51.436;6.774;2024-02-14T05:40:34;101031.72;;;8.47;100.00
13612;BME280;6877;51.436;6.774;2024-02-14T05:43:02;101023.91;;;8.45;100.00
13612;BME280;6877;51.436;6.774;2024-02-14T05:45:33;101038.66;;;8.48;100.00
13612;BME280;6877;51.436;6.774;2024-02-14T05:48:05;101032.56;;;8.49;100.00
13612;BME280;6877;51.436;6.774;2024-02-14T05:50:37;101036.03;;;8.48;100.00
13612;BME280;6877;51.436;6.774;2024-02-14T05:53:03;101031.72;;;8.47;100.00
13612;BME280;6877;51.436;6.774;2024-02-14T05:55:35;101038.66;;;8.48;100.00
13612;BME280;6877;51.436;6.774;2024-02-14T05:58:01;101044.78;;;8.45;100.00
13612;BME280;6877;51.436;6.774;2024-02-14T06:00:28;101047.38;;;8.45;100.00
13612;BME280;6877;51.436;6.774;2024-02-14T06:02:54;101049.09;;;8.46;100.00
13612;BME280;6877;51.436;6.774;2024-02-14T06:05:21;101049.94;;;8.50;100.00
13612;BME280;6877;51.436;6.774;2024-02-14T06:07:47;101042.97;;;8.50;100.00
13612;BME280;6877;51.436;6.774;2024-02-14T06:10:19;101048.22;;;8.52;100.00
13612;BME280;6877;51.436;6.774;2024-02-14T06:12:50;101053.41;;;8.50;100.00
13612;BME280;6877;51.436;6.774;2024-02-14T06:15:17;101055.19;;;8.45;100.00
13612;BME280;6877;51.436;6.774;2024-02-14T06:17:43;101056.06;;;8.44;100.00
13612;BME280;6877;51.436;6.774;2024-02-14T06:20:15;101056.94;;;8.43;100.00
13612;BME280;6877;51.436;6.774;2024-02-14T06:22:46;101061.28;;;8.38;100.00
13612;BME280;6877;51.436;6.774;2024-02-14T06:25:18;101069.09;;;8.32;100.00
13612;BME280;6877;51.436;6.774;2024-02-14T06:27:44;101064.78;;;8.28;100.00
13612;BME280;6877;51.436;6.774;2024-02-14T06:30:11;101064.81;;;8.23;100.00
13612;BME280;6877;51.436;6.774;2024-02-14T06:32:38;101067.41;;;8.25;100.00
13612;BME280;6877;51.436;6.774;2024-02-14T06:35:04;101063.91;;;8.26;100.00
13612;BME280;6877;51.436;6.774;2024-02-14T06:37:31;101065.69;;;8.27;100.00
13612;BME280;6877;51.436;6.774;2024-02-14T06:39:58;101070.88;;;8.30;100.00
13612;BME280;6877;51.436;6.774;2024-02-14T06:42:24;101074.31;;;8.32;100.00
13612;BME280;6877;51.436;6.774;2024-02-14T06:44:51;101074.31;;;8.35;100.00
13612;BME280;6877;51.436;6.774;2024-02-14T06:47:17;101080.44;;;8.39;100.00
13612;BME280;6877;51.436;6.774;2024-02-14T06:49:49;101079.56;;;8.38;100.00
13612;BME280;6877;51.436;6.774;2024-02-14T06:52:16;101069.09;;;8.41;100.00
13612;BME280;6877;51.436;6.774;2024-02-14T06:54:42;101078.69;;;8.45;100.00
13612;BME280;6877;51.436;6.774;2024-02-14T06:57:14;101081.25;;;8.47;100.00
13612;BME280;6877;51.436;6.774;2024-02-14T06:59:41;101080.38;;;8.49;100.00
13612;BME280;6877;51.436;6.774;2024-02-14T07:02:13;101082.97;;;8.51;100.00
13612;BME280;6877;51.436;6.774;2024-02-14T07:04:40;101094.28;;;8.54;100.00
13612;BME280;6877;51.436;6.774;2024-02-14T07:07:06;101099.47;;;8.56;100.00
13612;BME280;6877;51.436;6.774;2024-02-14T07:09:38;101106.44;;;8.58;100.00
13612;BME280;6877;51.436;6.774;2024-02-14T07:12:05;101096.84;;;8.61;100.00
13612;BME280;6877;51.436;6.774;2024-02-14T07:14:36;101109.88;;;8.64;100.00
13612;BME280;6877;51.436;6.774;2024-02-14T07:17:08;101110.72;;;8.66;100.00
13612;BME280;6877;51.436;6.774;2024-02-14T07:19:39;101113.34;;;8.67;100.00
13612;BME280;6877;51.436;6.774;2024-02-14T07:22:06;101107.28;;;8.61;100.00
13612;BME280;6877;51.436;6.774;2024-02-14T07:24:33;101113.41;;;8.53;100.00
13612;BME280;6877;51.436;6.774;2024-02-14T07:26:59;101109.94;;;8.47;100.00
13612;BME280;6877;51.436;6.774;2024-02-14T07:29:30;101107.38;;;8.45;100.00
13612;BME280;6877;51.436;6.774;2024-02-14T07:32:02;101110.81;;;8.49;100.00
13612;BME280;6877;51.436;6.774;2024-02-14T07:34:29;101115.19;;;8.45;100.00
13612;BME280;6877;51.436;6.774;2024-02-14T07:36:55;101118.66;;;8.49;100.00
13612;BME280;6877;51.436;6.774;2024-02-14T07:39:27;101116.88;;;8.51;100.00
13612;BME280;6877;51.436;6.774;2024-02-14T07:41:53;101127.31;;;8.55;100.00
13612;BME280;6877;51.436;6.774;2024-02-14T07:44:26;101124.69;;;8.55;100.00
13612;BME280;6877;51.436;6.774;2024-02-14T07:46:52;101126.44;;;8.56;100.00
13612;BME280;6877;51.436;6.774;2024-02-14T07:49:19;101120.31;;;8.61;100.00
13612;BME280;6877;51.436;6.774;2024-02-14T07:51:45;101130.72;;;8.64;100.00
13612;BME280;6877;51.436;6.774;2024-02-14T07:54:12;101130.72;;;8.64;100.00
13612;BME280;6877;51.436;6.774;2024-02-14T07:56:40;101130.72;;;8.70;100.00
13612;BME280;6877;51.436;6.774;2024-02-14T07:59:06;101130.69;;;8.73;100.00
13612;BME280;6877;51.436;6.774;2024-02-14T08:01:32;101128.09;;;8.77;100.00
13612;BME280;6877;51.436;6.774;2024-02-14T08:03:59;101127.16;;;8.85;100.00
13612;BME280;6877;51.436;6.774;2024-02-14T08:06:30;101126.28;;;8.90;100.00
13612;BME280;6877;51.436;6.774;2024-02-14T08:08:57;101127.13;;;8.95;100.00
13612;BME280;6877;51.436;6.774;2024-02-14T08:11:28;101127.09;;;9.00;100.00
13612;BME280;6877;51.436;6.774;2024-02-14T08:13:55;101129.66;;;9.01;100.00
13612;BME280;6877;51.436;6.774;2024-02-14T08:16:27;101136.63;;;9.05;100.00
13612;BME280;6877;51.436;6.774;2024-02-14T08:18:53;101135.75;;;9.08;100.00
13612;BME280;6877;51.436;6.774;2024-02-14T08:21:28;101133.94;;;9.13;100.00
13612;BME280;6877;51.436;6.774;2024-02-14T08:23:55;101137.38;;;9.20;100.00
13612;BME280;6877;51.436;6.774;2024-02-14T08:26:26;101135.56;;;9.29;100.00
13612;BME280;6877;51.436;6.774;2024-02-14T08:28:53;101132.94;;;9.36;100.00
13612;BME280;6877;51.436;6.774;2024-02-14T08:31:24;101129.44;;;9.38;100.00
13612;BME280;6877;51.436;6.774;2024-02-14T08:33:51;101141.56;;;9.42;100.00
13612;BME280;6877;51.436;6.774;2024-02-14T08:36:17;101150.28;;;9.44;100.00
13612;BME280;6877;51.436;6.774;2024-02-14T08:38:45;101145.03;;;9.47;100.00
13612;BME280;6877;51.436;6.774;2024-02-14T08:41:16;101148.50;;;9.49;100.00
13612;BME280;6877;51.436;6.774;2024-02-14T08:43:49;101158.06;;;9.50;100.00
13612;BME280;6877;51.436;6.774;2024-02-14T08:46:22;101151.06;;;9.56;100.00
13612;BME280;6877;51.436;6.774;2024-02-14T08:48:49;101152.75;;;9.61;100.00
13612;BME280;6877;51.436;6.774;2024-02-14T08:51:16;101150.09;;;9.69;100.00
13612;BME280;6877;51.436;6.774;2024-02-14T08:53:51;101159.63;;;9.73;100.00
13612;BME280;6877;51.436;6.774;2024-02-14T08:56:26;101148.28;;;9.75;100.00
13612;BME280;6877;51.436;6.774;2024-02-14T08:58:57;101153.47;;;9.80;100.00
13612;BME280;6877;51.436;6.774;2024-02-14T09:01:24;101159.56;;;9.82;100.00
13612;BME280;6877;51.436;6.774;2024-02-14T09:03:57;101153.44;;;9.83;100.00
13612;BME280;6877;51.436;6.774;2024-02-14T09:06:25;101163.09;;;9.75;100.00
13612;BME280;6877;51.436;6.774;2024-02-14T09:08:54;101176.28;;;9.63;100.00
13612;BME280;6877;51.436;6.774;2024-02-14T09:11:21;101165.88;;;9.54;100.00
13612;BME280;6877;51.436;6.774;2024-02-14T09:13:49;101159.84;;;9.45;100.00
13612;BME280;6877;51.436;6.774;2024-02-14T09:16:20;101164.22;;;9.43;100.00
13612;BME280;6877;51.436;6.774;2024-02-14T09:18:48;101164.22;;;9.46;100.00
13612;BME280;6877;51.436;6.774;2024-02-14T09:21:15;101166.78;;;9.48;100.00
13612;BME280;6877;51.436;6.774;2024-02-14T09:23:42;101173.69;;;9.55;100.00
13612;BME280;6877;51.436;6.774;2024-02-14T09:26:11;101168.47;;;9.60;100.00
13612;BME280;6877;51.436;6.774;2024-02-14T09:28:40;101174.56;;;9.62;100.00
13612;BME280;6877;51.436;6.774;2024-02-14T09:31:06;101171.03;;;9.63;100.00
13612;BME280;6877;51.436;6.774;2024-02-14T09:33:36;101164.06;;;9.63;100.00
13612;BME280;6877;51.436;6.774;2024-02-14T09:36:03;101171.91;;;9.65;100.00
13612;BME280;6877;51.436;6.774;2024-02-14T09:38:30;101170.13;;;9.68;100.00
13612;BME280;6877;51.436;6.774;2024-02-14T09:41:25;101163.91;;;9.82;100.00
13612;BME280;6877;51.436;6.774;2024-02-14T09:44:01;101167.22;;;10.04;100.00
13612;BME280;6877;51.436;6.774;2024-02-14T09:46:32;101175.72;;;10.23;100.00
13612;BME280;6877;51.436;6.774;2024-02-14T09:49:03;101176.41;;;10.43;100.00
13612;BME280;6877;51.436;6.774;2024-02-14T09:51:30;101180.56;;;10.61;100.00
13612;BME280;6877;51.436;6.774;2024-02-14T09:53:59;101173.47;;;10.72;100.00
13612;BME280;6877;51.436;6.774;2024-02-14T09:56:26;101174.25;;;10.79;100.00
13612;BME280;6877;51.436;6.774;2024-02-14T09:58:54;101184.63;;;10.86;100.00
13612;BME280;6877;51.436;6.774;2024-02-14T10:01:26;101188.91;;;10.90;100.00
13612;BME280;6877;51.436;6.774;2024-02-14T10:03:54;101191.50;;;10.95;100.00
13612;BME280;6877;51.436;6.774;2024-02-14T10:06:21;101192.34;;;10.96;100.00
13612;BME280;6877;51.436;6.774;2024-02-14T10:08:49;101192.41;;;10.93;100.00
13612;BME280;6877;51.436;6.774;2024-02-14T10:11:18;101181.06;;;10.90;100.00
13612;BME280;6877;51.436;6.774;2024-02-14T10:13:48;101177.59;;;10.90;100.00
13612;BME280;6877;51.436;6.774;2024-02-14T10:16:21;101178.44;;;10.90;100.00
13612;BME280;6877;51.436;6.774;2024-02-14T10:18:52;101181.09;;;10.87;100.00
13612;BME280;6877;51.436;6.774;2024-02-14T10:21:19;101190.88;;;10.75;100.00
13612;BME280;6877;51.436;6.774;2024-02-14T10:23:51;101184.91;;;10.63;100.00
13612;BME280;6877;51.436;6.774;2024-02-14T10:26:19;101197.13;;;10.63;100.00
13612;BME280;6877;51.436;6.774;2024-02-14T10:28:45;101199.72;;;10.64;100.00
13612;BME280;6877;51.436;6.774;2024-02-14T10:31:17;101196.16;;;10.70;100.00
13612;BME280;6877;51.436;6.774;2024-02-14T10:33:49;101194.31;;;10.81;100.00
13612;BME280;6877;51.436;6.774;2024-02-14T10:36:21;101199.47;;;10.84;100.00
13612;BME280;6877;51.436;6.774;2024-02-14T10:38:54;101193.53;;;10.72;100.00
13612;BME280;6877;51.436;6.774;2024-02-14T10:41:25;101197.97;;;10.65;100.00
13612;BME280;6877;51.436;6.774;2024-02-14T10:43:53;101197.94;;;10.68;100.00
13612;BME280;6877;51.436;6.774;2024-02-14T10:46:20;101194.38;;;10.75;100.00
13612;BME280;6877;51.436;6.774;2024-02-14T10:49:08;101192.53;;;10.82;100.00
13612;BME280;6877;51.436;6.774;2024-02-14T10:51:38;101203.84;;;10.85;100.00
13612;BME280;6877;51.436;6.774;2024-02-14T10:54:14;101200.22;;;10.97;100.00
13612;BME280;6877;51.436;6.774;2024-02-14T10:56:49;101204.34;;;11.13;100.00
13612;BME280;6877;51.436;6.774;2024-02-14T10:59:24;101203.34;;;11.24;100.00
13612;BME280;6877;51.436;6.774;2024-02-14T11:01:51;101208.44;;;11.33;100.00
13612;BME280;6877;51.436;6.774;2024-02-14T11:04:23;101214.41;;;11.43;100.00
13612;BME280;6877;51.436;6.774;2024-02-14T11:06:53;101200.22;;;11.57;100.00
13612;BME280;6877;51.436;6.774;2024-02-14T11:09:33;101212.28;;;11.66;100.00
13612;BME280;6877;51.436;6.774;2024-02-14T11:12:02;101210.34;;;11.79;100.00
13612;BME280;6877;51.436;6.774;2024-02-14T11:14:32;101214.72;;;11.78;100.00
13612;BME280;6877;51.436;6.774;2024-02-14T11:17:13;101213.88;;;11.79;100.00
13612;BME280;6877;51.436;6.774;2024-02-14T11:19:45;101205.09;;;11.80;100.00
13612;BME280;6877;51.436;6.774;2024-02-14T11:22:18;101208.56;;;11.81;100.00
13612;BME280;6877;51.436;6.774;2024-02-14T11:24:46;101204.13;;;11.88;100.00
13612;BME280;6877;51.436;6.774;2024-02-14T11:27:13;101204.94;;;11.93;100.00
13612;BME280;6877;51.436;6.774;2024-02-14T11:29:40;101208.25;;;12.02;100.00
13612;BME280;6877;51.436;6.774;2024-02-14T11:32:11;101215.97;;;12.12;100.00
13612;BME280;6877;51.436;6.774;2024-02-14T11:34:42;101203.75;;;12.09;100.00
13612;BME280;6877;51.436;6.774;2024-02-14T11:37:10;101202.06;;;12.06;100.00
13612;BME280;6877;51.436;6.774;2024-02-14T11:39:36;101202.91;;;12.07;100.00
13612;BME280;6877;51.436;6.774;2024-02-14T11:42:04;101196.75;;;12.10;100.00
13612;BME280;6877;51.436;6.774;2024-02-14T11:44:30;101199.38;;;12.10;100.00
13612;BME280;6877;51.436;6.774;2024-02-14T11:47:03;101194.81;;;12.19;100.00
13612;BME280;6877;51.436;6.774;2024-02-14T11:49:32;101188.59;;;12.26;100.00
13612;BME280;6877;51.436;6.774;2024-02-14T11:52:01;101195.47;;;12.34;100.00
13612;BME280;6877;51.436;6.774;2024-02-14T11:54:33;101190.72;;;12.52;100.00
13612;BME280;6877;51.436;6.774;2024-02-14T11:56:59;101190.47;;;12.65;100.00
13612;BME280;6877;51.436;6.774;2024-02-14T11:59:26;101183.28;;;12.73;100.00
13612;BME280;6877;51.436;6.774;2024-02-14T12:01:53;101181.50;;;12.75;100.00
13612;BME280;6877;51.436;6.774;2024-02-14T12:04:21;101183.41;;;12.68;100.00
13612;BME280;6877;51.436;6.774;2024-02-14T12:06:53;101175.66;;;12.62;100.00
13612;BME280;6877;51.436;6.774;2024-02-14T12:09:20;101183.59;;;12.59;100.00
13612;BME280;6877;51.436;6.774;2024-02-14T12:11:47;101186.56;;;12.41;100.00
13612;BME280;6877;51.436;6.774;2024-02-14T12:14:15;101180.31;;;12.00;100.00
13612;BME280;6877;51.436;6.774;2024-02-14T12:16:41;101190.31;;;11.76;100.00
13612;BME280;6877;51.436;6.774;2024-02-14T12:19:15;101196.63;;;11.63;100.00
13612;BME280;6877;51.436;6.774;2024-02-14T12:21:47;101202.81;;;11.59;100.00
13612;BME280;6877;51.436;6.774;2024-02-14T12:24:14;101195.84;;;11.58;100.00
13612;BME280;6877;51.436;6.774;2024-02-14T12:26:46;101189.56;;;11.68;100.00
13612;BME280;6877;51.436;6.774;2024-02-14T12:29:16;101185.84;;;11.81;100.00
13612;BME280;6877;51.436;6.774;2024-02-14T12:31:43;101187.56;;;11.86;100.00
13612;BME280;6877;51.436;6.774;2024-02-14T12:34:10;101182.28;;;11.89;100.00
13612;BME280;6877;51.436;6.774;2024-02-14T12:36:37;101190.09;;;11.92;100.00
13612;BME280;6877;51.436;6.774;2024-02-14T12:39:04;101178.75;;;11.90;100.00
13612;BME280;6877;51.436;6.774;2024-02-14T12:41:36;101178.09;;;11.74;100.00
13612;BME280;6877;51.436;6.774;2024-02-14T12:44:06;101184.47;;;11.59;100.00
13612;BME280;6877;51.436;6.774;2024-02-14T12:46:38;101186.50;;;11.42;100.00
13612;BME280;6877;51.436;6.774;2024-02-14T12:49:09;101193.63;;;11.32;100.00
13612;BME280;6877;51.436;6.774;2024-02-14T12:51:37;101184.06;;;11.28;100.00
13612;BME280;6877;51.436;6.774;2024-02-14T12:54:04;101189.38;;;11.22;100.00
13612;BME280;6877;51.436;6.774;2024-02-14T12:56:36;101177.19;;;11.21;100.00
13612;BME280;6877;51.436;6.774;2024-02-14T12:59:03;101185.88;;;11.23;100.00
13612;BME280;6877;51.436;6.774;2024-02-14T13:01:30;101184.06;;;11.28;100.00
13612;BME280;6877;51.436;6.774;2024-02-14T13:04:02;101179.59;;;11.34;100.00
13612;BME280;6877;51.436;6.774;2024-02-14T13:06:35;101182.16;;;11.37;100.00